Flight Track Log - Related Links

Times and Time Zones

All times are in EDT time to prevent confusion due to time zone crossing. See the UAL4695 flight status page for this flight to view local times or setup timezone preferences in your user account.

Time Position Orientation Groundspeed Altitude Reporting Facility
EDT Latitude Longitude Course Direction KTS MPH feet Rate Location/Type
Tue 05:19:25 PM 35.9053 -78.7719 15° North 179 206 1,700  Level Washington Center
Tue 05:20:20 PM 35.9497 -78.7428 28° Northeast 189 217 4,300 2,345 Climbing Washington Center
Tue 05:21:15 PM 36.0044 -78.7244 15° North 243 280 6,000 2,283 Climbing Washington Center
Tue 05:22:00 PM 36.1747 -78.6656 19° North  Level FlightAware Approximate
Tue 05:22:13 PM 36.0783 -78.6992 15° North 270 311 8,600  Level Washington Center
Tue 05:23:00 PM 36.2515 -78.6328 15° North  Level FlightAware Approximate
Tue 05:23:13 PM 36.1433 -78.6786 14° North 270 311 10,600  Level Washington Center
Tue 05:24:00 PM 36.3299 -78.6067 15° North  Level FlightAware Approximate
Tue 05:24:14 PM 36.2381 -78.6489 14° North 294 338 11,800  Level Washington Center
Tue 05:25:14 PM 36.3244 -78.6211 15° North 337 388 13,100 1,438 Climbing Washington Center
Tue 05:26:15 PM 36.4358 -78.5842 15° North 360 414 14,700 1,513 Climbing Washington Center
Tue 05:27:13 PM 36.5369 -78.5494 15° North 373 429 16,100 1,462 Climbing Washington Center
Tue 05:28:14 PM 36.6419 -78.5144 15° North 373 429 17,600 1,240 Climbing Washington Center
Tue 05:29:14 PM 36.7328 -78.4764 19° North 384 442 18,600 1,190 Climbing Washington Center
Tue 05:30:15 PM 36.8239 -78.4072 31° Northeast 379 436 20,000 1,388 Climbing Washington Center
Tue 05:31:15 PM 36.9153 -78.3353 32° Northeast 379 436 21,400 1,550 Climbing Washington Center
Tue 05:32:15 PM 37.0153 -78.2528 33° Northeast 391 450 23,100 1,525 Climbing Washington Center
Tue 05:33:13 PM 37.1067 -78.1806 32° Northeast 391 450 24,400 958 Climbing Washington Center
Tue 05:34:14 PM 37.1872 -78.1128 34° Northeast 391 450 25,000 793 Climbing Washington Center
Tue 05:35:14 PM 37.2808 -78.0350 33° Northeast 391 450 26,000 496 Climbing Washington Center
Tue 05:36:15 PM 37.3783 -77.9544 33° Northeast 397 457 26,000  Level Washington Center
Tue 05:37:15 PM 37.4781 -77.8711 34° Northeast 411 473 26,000 458 Level Washington Center
Tue 05:38:13 PM 37.5775 -77.7825 35° Northeast 431 496 26,900 508 Climbing Washington Center
Tue 05:39:13 PM 37.6772 -77.6961 34° Northeast 431 496 27,000 50 Climbing Washington Center
Tue 05:40:14 PM 37.7767 -77.6044 36° Northeast 431 496 27,000  Level Washington Center
Tue 05:41:14 PM 37.8783 -77.5097 36° Northeast 436 502 27,000  Level Washington Center
Tue 05:42:15 PM 37.9800 -77.4175 36° Northeast 436 502 27,000  Level Washington Center
Tue 05:43:15 PM 38.0750 -77.3328 35° Northeast 436 502 27,000  Level Washington Center
Tue 05:44:13 PM 38.1861 -77.2903 17° North 410 472 27,000  Level Washington Center
Tue 05:45:14 PM 38.3047 -77.3142 351° North 402 463 27,000  Level Washington Center
Tue 05:46:15 PM 38.4197 -77.3008 North 407 468 27,000  Level Washington Center
Tue 05:47:15 PM 38.4983 -77.1781 51° Northeast 394 453 27,000  Level Washington Center
Tue 05:48:14 PM 38.5647 -77.0414 58° Northeast 401 461 27,000  Level Washington Center
Tue 05:49:14 PM 38.6600 -76.9131 46° Northeast 434 499 27,000  Level Washington Center
Tue 05:50:15 PM 38.7278 -76.8211 47° Northeast 439 505 27,000  Level Washington Center
Tue 05:51:13 PM 38.8186 -76.7000 46° Northeast 439 505 27,000  Level Washington Center
Tue 05:52:14 PM 38.9008 -76.5867 47° Northeast 434 499 27,000  Level Washington Center
Tue 05:53:14 PM 38.9853 -76.4728 46° Northeast 429 494 27,000  Level Washington Center
Tue 05:54:15 PM 39.0672 -76.3617 46° Northeast 429 494 27,000  Level Washington Center
Tue 05:55:15 PM 39.1514 -76.2472 46° Northeast 429 494 27,000  Level Washington Center
Tue 05:56:13 PM 39.2456 -76.1222 46° Northeast 434 499 27,000  Level Washington Center
Tue 05:57:14 PM 39.3378 -76.0156 42° Northeast 434 499 27,000  Level Washington Center
Tue 05:58:15 PM 39.4236 -75.9086 44° Northeast 428 493 27,000  Level Washington Center
Tue 05:59:15 PM 39.5114 -75.7986 44° Northeast 428 493 27,000 -763 Level Washington Center
Tue 06:00:13 PM 39.6053 -75.6967 40° Northeast 428 493 25,500 -1,983 Descending Washington Center
Tue 06:01:13 PM 39.6906 -75.5942 43° Northeast 423 487 23,100 -2,529 Descending Washington Center
Tue 06:02:14 PM 39.7781 -75.4889 43° Northeast 423 487 20,400 -2,508 Descending Washington Center
Tue 06:03:15 PM 39.8614 -75.3889 43° Northeast 423 487 18,000 -2,218 Descending Washington Center
Tue 06:04:13 PM 39.9403 -75.2939 43° Northeast 411 473 16,000 -1,916 Descending Washington Center
Tue 06:05:14 PM 40.0025 -75.2178 43° Northeast 393 452 14,200 -1,983 Descending Washington Center
Tue 06:06:14 PM 40.0833 -75.1197 43° Northeast 371 427 12,000 -1,695 Descending Washington Center
Tue 06:07:25 PM 40.1667 -75.0167 43° Northeast 288 331 10,500 -1,237 Descending New York TRACON
Tue 06:08:25 PM 40.2167 -74.9500 46° Northeast 288 331 9,300 -1,250 Descending New York TRACON
Tue 06:09:25 PM 40.2833 -74.8667 44° Northeast 277 319 8,000 -650 Descending New York TRACON
Tue 06:10:25 PM 40.3333 -74.8000 45° Northeast 271 312 8,000 -600 Level New York TRACON
Tue 06:12:25 PM 40.4333 -74.6667 45° Northeast 261 300 6,200 -667 Descending New York TRACON
Tue 06:13:25 PM 40.4833 -74.6167 37° Northeast 263 303 6,000 -67 Descending New York TRACON
Tue 06:15:25 PM 40.6167 -74.6000 North 266 306 6,000  Level New York TRACON
Tue 06:16:25 PM 40.6833 -74.6667 323° Northwest 277 319 6,000  Level New York TRACON
Tue 06:17:25 PM 40.7333 -74.6833 346° North 261 300 6,000  Level New York TRACON
Tue 06:18:25 PM 40.8000 -74.6667 11° North 247 284 6,000  Level New York TRACON
Tue 06:19:25 PM 40.8667 -74.6167 30° Northeast 233 268 6,000 -300 Level New York TRACON
Tue 06:20:25 PM 40.9000 -74.5667 49° Northeast 196 226 5,400 -450 Descending New York TRACON
Tue 06:21:25 PM 40.9333 -74.5167 49° Northeast 200 230 5,100 -150 Descending New York TRACON
Tue 06:22:25 PM 40.9667 -74.4667 49° Northeast 201 231 5,100 -50 Level New York TRACON
Tue 06:23:25 PM 40.9667 -74.4000 90° East 192 221 5,000  Descending New York TRACON
Tue 06:24:25 PM 40.9667 -74.3333 90° East 188 216 5,100 -450 Climbing New York TRACON
Tue 06:25:25 PM 40.9500 -74.2500 105° East 191 220 4,100 -500 Descending New York TRACON
Tue 06:26:25 PM 40.9500 -74.1833 90° East 177 204 4,100 -50 Level New York TRACON
Tue 06:27:25 PM 40.9167 -74.1333 131° Southeast 184 212 4,000 -500 Descending New York TRACON
Tue 06:28:25 PM 40.8833 -74.0833 131° Southeast 185 213 3,100 -450 Descending New York TRACON
Tue 06:29:25 PM 40.8333 -74.0833 180° South 189 217 3,100  Level New York TRACON

Login

Don't have an account? Register now (free) for customized features, flight alerts, and more!